sensor_id;sensor_type;location;lat;lon;timestamp;pressure;altitude;pressure_sealevel;temperature;humidity
21633;BME280;48765;51.568;8.840;2022-09-27T00:00:32;96285.41;;;10.31;100.00
21633;BME280;48765;51.568;8.840;2022-09-27T00:02:59;96281.03;;;10.30;100.00
21633;BME280;48765;51.568;8.840;2022-09-27T00:05:28;96284.38;;;10.35;100.00
21633;BME280;48765;51.568;8.840;2022-09-27T00:07:56;96281.88;;;10.53;100.00
21633;BME280;48765;51.568;8.840;2022-09-27T00:10:23;96283.13;;;10.44;100.00
21633;BME280;48765;51.568;8.840;2022-09-27T00:12:50;96284.50;;;10.32;100.00
21633;BME280;48765;51.568;8.840;2022-09-27T00:15:17;96280.91;;;10.33;100.00
21633;BME280;48765;51.568;8.840;2022-09-27T00:17:45;96279.75;;;10.40;100.00
21633;BME280;48765;51.568;8.840;2022-09-27T00:20:16;96275.59;;;10.33;100.00
21633;BME280;48765;51.568;8.840;2022-09-27T00:22:45;96282.41;;;10.40;100.00
21633;BME280;48765;51.568;8.840;2022-09-27T00:25:12;96279.78;;;10.39;100.00
21633;BME280;48765;51.568;8.840;2022-09-27T00:27:39;96276.19;;;10.18;100.00
21633;BME280;48765;51.568;8.840;2022-09-27T00:30:07;96289.91;;;10.29;100.00
21633;BME280;48765;51.568;8.840;2022-09-27T00:32:34;96279.88;;;10.37;100.00
21633;BME280;48765;51.568;8.840;2022-09-27T00:35:01;96285.34;;;10.33;100.00
21633;BME280;48765;51.568;8.840;2022-09-27T00:37:28;96283.97;;;10.22;100.00
21633;BME280;48765;51.568;8.840;2022-09-27T00:39:57;96288.31;;;10.23;100.00
21633;BME280;48765;51.568;8.840;2022-09-27T00:42:24;96285.19;;;10.14;100.00
21633;BME280;48765;51.568;8.840;2022-09-27T00:44:58;96282.53;;;10.14;100.00
21633;BME280;48765;51.568;8.840;2022-09-27T00:47:26;96271.69;;;10.20;100.00
21633;BME280;48765;51.568;8.840;2022-09-27T00:49:56;96275.38;;;10.16;100.00
21633;BME280;48765;51.568;8.840;2022-09-27T00:52:26;96280.25;;;10.05;100.00
21633;BME280;48765;51.568;8.840;2022-09-27T00:54:54;96274.06;;;10.28;100.00
21633;BME280;48765;51.568;8.840;2022-09-27T00:57:25;96261.91;;;10.22;100.00
21633;BME280;48765;51.568;8.840;2022-09-27T00:59:52;96266.75;;;10.11;100.00
21633;BME280;48765;51.568;8.840;2022-09-27T01:02:21;96265.72;;;9.93;100.00
21633;BME280;48765;51.568;8.840;2022-09-27T01:04:48;96259.25;;;10.00;100.00
21633;BME280;48765;51.568;8.840;2022-09-27T01:07:15;96264.88;;;10.14;100.00
21633;BME280;48765;51.568;8.840;2022-09-27T01:09:42;96264.25;;;10.08;100.00
21633;BME280;48765;51.568;8.840;2022-09-27T01:12:11;96267.94;;;10.04;100.00
21633;BME280;48765;51.568;8.840;2022-09-27T01:14:46;96265.72;;;10.15;100.00
21633;BME280;48765;51.568;8.840;2022-09-27T01:17:21;96260.56;;;10.12;100.00
21633;BME280;48765;51.568;8.840;2022-09-27T01:20:06;96264.94;;;10.13;100.00
21633;BME280;48765;51.568;8.840;2022-09-27T01:22:37;96265.88;;;10.12;100.00
21633;BME280;48765;51.568;8.840;2022-09-27T01:25:10;96257.22;;;10.07;100.00
21633;BME280;48765;51.568;8.840;2022-09-27T01:30:26;96256.91;;;10.14;100.00
21633;BME280;48765;51.568;8.840;2022-09-27T01:32:57;96258.81;;;10.11;100.00
21633;BME280;48765;51.568;8.840;2022-09-27T01:35:31;96252.19;;;10.22;100.00
21633;BME280;48765;51.568;8.840;2022-09-27T01:38:04;96249.50;;;10.24;100.00
21633;BME280;48765;51.568;8.840;2022-09-27T01:40:37;96246.34;;;10.14;100.00
21633;BME280;48765;51.568;8.840;2022-09-27T01:43:07;96252.03;;;10.27;100.00
21633;BME280;48765;51.568;8.840;2022-09-27T01:45:37;96252.75;;;10.09;100.00
21633;BME280;48765;51.568;8.840;2022-09-27T01:48:09;96243.22;;;10.27;100.00
21633;BME280;48765;51.568;8.840;2022-09-27T01:50:38;96246.41;;;10.13;100.00
21633;BME280;48765;51.568;8.840;2022-09-27T01:53:06;96241.78;;;10.18;100.00
21633;BME280;48765;51.568;8.840;2022-09-27T01:55:35;96239.72;;;10.26;100.00
21633;BME280;48765;51.568;8.840;2022-09-27T01:58:04;96241.91;;;10.15;100.00
21633;BME280;48765;51.568;8.840;2022-09-27T02:00:32;96245.91;;;10.03;100.00
21633;BME280;48765;51.568;8.840;2022-09-27T02:03:03;96246.69;;;10.05;100.00
21633;BME280;48765;51.568;8.840;2022-09-27T02:05:33;96245.91;;;10.25;100.00
21633;BME280;48765;51.568;8.840;2022-09-27T02:08:03;96236.25;;;10.24;100.00
21633;BME280;48765;51.568;8.840;2022-09-27T02:10:32;96237.03;;;10.04;100.00
21633;BME280;48765;51.568;8.840;2022-09-27T02:13:02;96254.47;;;10.10;100.00
21633;BME280;48765;51.568;8.840;2022-09-27T02:15:32;96246.75;;;10.27;100.00
21633;BME280;48765;51.568;8.840;2022-09-27T02:18:07;96244.53;;;10.15;100.00
21633;BME280;48765;51.568;8.840;2022-09-27T02:20:38;96240.47;;;10.06;100.00
21633;BME280;48765;51.568;8.840;2022-09-27T02:23:08;96253.59;;;10.09;100.00
21633;BME280;48765;51.568;8.840;2022-09-27T02:25:39;96244.13;;;10.04;100.00
21633;BME280;48765;51.568;8.840;2022-09-27T02:28:10;96240.38;;;10.09;100.00
21633;BME280;48765;51.568;8.840;2022-09-27T02:30:40;96240.19;;;10.14;100.00
21633;BME280;48765;51.568;8.840;2022-09-27T02:33:09;96255.38;;;10.09;100.00
21633;BME280;48765;51.568;8.840;2022-09-27T02:35:36;96257.47;;;10.01;100.00
21633;BME280;48765;51.568;8.840;2022-09-27T02:38:03;96264.84;;;9.92;100.00
21633;BME280;48765;51.568;8.840;2022-09-27T02:40:31;96260.69;;;10.09;100.00
21633;BME280;48765;51.568;8.840;2022-09-27T02:42:58;96263.13;;;9.91;100.00
21633;BME280;48765;51.568;8.840;2022-09-27T02:45:26;96267.94;;;10.27;100.00
21633;BME280;48765;51.568;8.840;2022-09-27T02:47:58;96268.31;;;10.16;100.00
21633;BME280;48765;51.568;8.840;2022-09-27T02:50:36;96276.81;;;10.03;100.00
21633;BME280;48765;51.568;8.840;2022-09-27T02:53:09;96275.78;;;9.83;100.00
21633;BME280;48765;51.568;8.840;2022-09-27T02:55:40;96285.03;;;9.95;100.00
21633;BME280;48765;51.568;8.840;2022-09-27T02:58:13;96276.91;;;9.99;100.00
21633;BME280;48765;51.568;8.840;2022-09-27T03:00:47;96288.31;;;9.78;100.00
21633;BME280;48765;51.568;8.840;2022-09-27T03:03:17;96292.00;;;9.97;100.00
21633;BME280;48765;51.568;8.840;2022-09-27T03:05:49;96297.22;;;9.99;100.00
21633;BME280;48765;51.568;8.840;2022-09-27T03:08:17;96293.06;;;9.93;100.00
21633;BME280;48765;51.568;8.840;2022-09-27T03:10:44;96293.84;;;9.95;100.00
21633;BME280;48765;51.568;8.840;2022-09-27T03:13:11;96303.22;;;9.81;100.00
21633;BME280;48765;51.568;8.840;2022-09-27T03:15:38;96306.38;;;9.67;100.00
21633;BME280;48765;51.568;8.840;2022-09-27T03:18:05;96300.50;;;9.82;100.00
21633;BME280;48765;51.568;8.840;2022-09-27T03:20:32;96295.88;;;9.89;100.00
21633;BME280;48765;51.568;8.840;2022-09-27T03:23:01;96299.25;;;9.69;100.00
21633;BME280;48765;51.568;8.840;2022-09-27T03:25:27;96293.25;;;9.87;100.00
21633;BME280;48765;51.568;8.840;2022-09-27T03:27:55;96295.88;;;9.89;100.00
21633;BME280;48765;51.568;8.840;2022-09-27T03:30:22;96308.25;;;9.65;100.00
21633;BME280;48765;51.568;8.840;2022-09-27T03:32:49;96308.16;;;9.90;100.00
21633;BME280;48765;51.568;8.840;2022-09-27T03:35:16;96303.16;;;9.82;100.00
21633;BME280;48765;51.568;8.840;2022-09-27T03:37:43;96303.63;;;9.93;100.00
21633;BME280;48765;51.568;8.840;2022-09-27T03:40:13;96299.72;;;9.80;100.00
21633;BME280;48765;51.568;8.840;2022-09-27T03:42:40;96308.09;;;9.68;100.00
21633;BME280;48765;51.568;8.840;2022-09-27T03:45:07;96300.81;;;9.51;100.00
21633;BME280;48765;51.568;8.840;2022-09-27T03:47:34;96305.44;;;9.69;100.00
21633;BME280;48765;51.568;8.840;2022-09-27T03:50:05;96309.81;;;9.69;100.00
21633;BME280;48765;51.568;8.840;2022-09-27T03:52:32;96305.00;;;9.57;100.00
21633;BME280;48765;51.568;8.840;2022-09-27T03:55:00;96299.13;;;9.72;100.00
21633;BME280;48765;51.568;8.840;2022-09-27T03:57:28;96312.03;;;9.58;100.00
21633;BME280;48765;51.568;8.840;2022-09-27T03:59:56;96316.72;;;9.50;100.00
21633;BME280;48765;51.568;8.840;2022-09-27T04:02:24;96301.34;;;9.61;100.00
21633;BME280;48765;51.568;8.840;2022-09-27T04:04:51;96314.94;;;9.50;100.00
21633;BME280;48765;51.568;8.840;2022-09-27T04:07:18;96313.19;;;9.51;100.00
21633;BME280;48765;51.568;8.840;2022-09-27T04:09:45;96319.25;;;9.53;100.00
21633;BME280;48765;51.568;8.840;2022-09-27T04:12:12;96312.44;;;9.45;100.00
21633;BME280;48765;51.568;8.840;2022-09-27T04:14:40;96315.25;;;9.66;100.00
21633;BME280;48765;51.568;8.840;2022-09-27T04:17:07;96318.13;;;9.60;100.00
21633;BME280;48765;51.568;8.840;2022-09-27T04:19:34;96309.09;;;9.65;100.00
21633;BME280;48765;51.568;8.840;2022-09-27T04:22:05;96315.25;;;9.66;100.00
21633;BME280;48765;51.568;8.840;2022-09-27T04:24:32;96318.06;;;9.61;100.00
21633;BME280;48765;51.568;8.840;2022-09-27T04:26:59;96312.72;;;9.63;100.00
21633;BME280;48765;51.568;8.840;2022-09-27T04:29:26;96314.50;;;9.62;100.00
21633;BME280;48765;51.568;8.840;2022-09-27T04:31:55;96326.28;;;9.54;100.00
21633;BME280;48765;51.568;8.840;2022-09-27T04:34:22;96324.31;;;9.59;100.00
21633;BME280;48765;51.568;8.840;2022-09-27T04:37:09;96323.34;;;9.61;100.00
21633;BME280;48765;51.568;8.840;2022-09-27T04:39:36;96321.69;;;9.59;100.00
21633;BME280;48765;51.568;8.840;2022-09-27T04:42:04;96326.75;;;9.65;100.00
21633;BME280;48765;51.568;8.840;2022-09-27T04:44:31;96320.66;;;9.63;100.00
21633;BME280;48765;51.568;8.840;2022-09-27T04:47:00;96332.31;;;9.57;100.00
21633;BME280;48765;51.568;8.840;2022-09-27T04:49:26;96325.75;;;9.44;100.00
21633;BME280;48765;51.568;8.840;2022-09-27T04:51:53;96331.72;;;9.49;100.00
21633;BME280;48765;51.568;8.840;2022-09-27T04:54:20;96330.25;;;9.65;100.00
21633;BME280;48765;51.568;8.840;2022-09-27T04:56:47;96336.53;;;9.63;100.00
21633;BME280;48765;51.568;8.840;2022-09-27T04:59:15;96341.00;;;9.61;100.00
21633;BME280;48765;51.568;8.840;2022-09-27T05:01:42;96347.03;;;9.64;100.00
21633;BME280;48765;51.568;8.840;2022-09-27T05:04:11;96346.75;;;9.72;100.00
21633;BME280;48765;51.568;8.840;2022-09-27T05:06:37;96351.47;;;9.64;100.00
21633;BME280;48765;51.568;8.840;2022-09-27T05:09:04;96364.34;;;9.73;100.00
21633;BME280;48765;51.568;8.840;2022-09-27T05:11:32;96367.81;;;9.50;100.00
21633;BME280;48765;51.568;8.840;2022-09-27T05:14:02;96364.66;;;9.40;100.00
21633;BME280;48765;51.568;8.840;2022-09-27T05:16:29;96372.72;;;9.37;100.00
21633;BME280;48765;51.568;8.840;2022-09-27T05:18:56;96369.13;;;9.38;100.00
21633;BME280;48765;51.568;8.840;2022-09-27T05:21:26;96372.72;;;9.37;100.00
21633;BME280;48765;51.568;8.840;2022-09-27T05:23:53;96379.81;;;9.35;100.00
21633;BME280;48765;51.568;8.840;2022-09-27T05:26:20;96379.13;;;9.30;100.00
21633;BME280;48765;51.568;8.840;2022-09-27T05:28:47;96376.50;;;9.55;100.00
21633;BME280;48765;51.568;8.840;2022-09-27T05:31:14;96380.03;;;9.54;100.00
21633;BME280;48765;51.568;8.840;2022-09-27T05:33:41;96381.44;;;9.39;100.00
21633;BME280;48765;51.568;8.840;2022-09-27T05:36:08;96386.72;;;9.39;100.00
21633;BME280;48765;51.568;8.840;2022-09-27T05:38:36;96397.22;;;9.42;100.00
21633;BME280;48765;51.568;8.840;2022-09-27T05:41:04;96388.97;;;9.50;100.00
21633;BME280;48765;51.568;8.840;2022-09-27T05:43:31;96382.44;;;9.37;100.00
21633;BME280;48765;51.568;8.840;2022-09-27T05:45:58;96384.91;;;9.41;100.00
21633;BME280;48765;51.568;8.840;2022-09-27T05:48:25;96392.22;;;9.58;100.00
21633;BME280;48765;51.568;8.840;2022-09-27T05:50:54;96401.25;;;9.28;100.00
21633;BME280;48765;51.568;8.840;2022-09-27T05:53:21;96395.19;;;9.24;100.00
21633;BME280;48765;51.568;8.840;2022-09-27T05:55:50;96409.06;;;9.31;100.00
21633;BME280;48765;51.568;8.840;2022-09-27T05:58:17;96406.53;;;9.28;100.00
21633;BME280;48765;51.568;8.840;2022-09-27T06:00:44;96405.84;;;9.47;100.00
21633;BME280;48765;51.568;8.840;2022-09-27T06:03:12;96418.38;;;9.42;100.00
21633;BME280;48765;51.568;8.840;2022-09-27T06:05:39;96412.84;;;9.24;100.00
21633;BME280;48765;51.568;8.840;2022-09-27T06:08:07;96417.34;;;9.20;100.00
21633;BME280;48765;51.568;8.840;2022-09-27T06:10:35;96417.44;;;9.43;100.00
21633;BME280;48765;51.568;8.840;2022-09-27T06:13:04;96405.41;;;9.35;100.00
21633;BME280;48765;51.568;8.840;2022-09-27T06:15:32;96427.22;;;9.41;100.00
21633;BME280;48765;51.568;8.840;2022-09-27T06:18:01;96428.16;;;9.39;100.00
21633;BME280;48765;51.568;8.840;2022-09-27T06:20:29;96430.59;;;9.45;100.00
21633;BME280;48765;51.568;8.840;2022-09-27T06:23:02;96431.38;;;9.22;100.00
21633;BME280;48765;51.568;8.840;2022-09-27T06:25:29;96436.25;;;9.34;100.00
21633;BME280;48765;51.568;8.840;2022-09-27T06:27:56;96437.19;;;9.33;100.00
21633;BME280;48765;51.568;8.840;2022-09-27T06:30:26;96431.59;;;9.42;100.00
21633;BME280;48765;51.568;8.840;2022-09-27T06:32:57;96452.44;;;9.25;100.00
21633;BME280;48765;51.568;8.840;2022-09-27T06:35:24;96444.38;;;9.55;100.00
21633;BME280;48765;51.568;8.840;2022-09-27T06:37:51;96457.44;;;9.59;100.00
21633;BME280;48765;51.568;8.840;2022-09-27T06:40:19;96447.38;;;9.44;100.00
21633;BME280;48765;51.568;8.840;2022-09-27T06:42:46;96459.34;;;9.56;100.00
21633;BME280;48765;51.568;8.840;2022-09-27T06:45:14;96459.06;;;9.63;100.00
21633;BME280;48765;51.568;8.840;2022-09-27T06:47:42;96460.03;;;9.61;100.00
21633;BME280;48765;51.568;8.840;2022-09-27T06:50:11;96477.84;;;9.56;100.00
21633;BME280;48765;51.568;8.840;2022-09-27T06:52:45;96476.00;;;9.58;100.00
21633;BME280;48765;51.568;8.840;2022-09-27T06:55:12;96494.22;;;9.40;100.00
21633;BME280;48765;51.568;8.840;2022-09-27T06:57:39;96494.34;;;9.37;100.00
21633;BME280;48765;51.568;8.840;2022-09-27T07:00:23;96495.28;;;9.61;100.00
21633;BME280;48765;51.568;8.840;2022-09-27T07:02:53;96488.31;;;9.59;100.00
21633;BME280;48765;51.568;8.840;2022-09-27T07:05:25;96496.84;;;9.67;100.00
21633;BME280;48765;51.568;8.840;2022-09-27T07:07:53;96506.69;;;9.37;100.00
21633;BME280;48765;51.568;8.840;2022-09-27T07:10:22;96512.28;;;9.54;100.00
21633;BME280;48765;51.568;8.840;2022-09-27T07:12:50;96503.88;;;9.68;100.00
21633;BME280;48765;51.568;8.840;2022-09-27T07:15:17;96506.81;;;9.85;100.00
21633;BME280;48765;51.568;8.840;2022-09-27T07:17:45;96510.69;;;9.75;100.00
21633;BME280;48765;51.568;8.840;2022-09-27T07:20:14;96503.78;;;9.71;100.00
21633;BME280;48765;51.568;8.840;2022-09-27T07:22:41;96510.88;;;9.69;100.00
21633;BME280;48765;51.568;8.840;2022-09-27T07:25:09;96518.13;;;9.64;100.00
21633;BME280;48765;51.568;8.840;2022-09-27T07:27:36;96514.28;;;9.74;100.00
21633;BME280;48765;51.568;8.840;2022-09-27T07:30:05;96516.91;;;9.47;100.00
21633;BME280;48765;51.568;8.840;2022-09-27T07:32:32;96524.25;;;9.66;100.00
21633;BME280;48765;51.568;8.840;2022-09-27T07:35:01;96522.69;;;9.85;100.00
21633;BME280;48765;51.568;8.840;2022-09-27T07:37:31;96520.34;;;9.50;100.00
21633;BME280;48765;51.568;8.840;2022-09-27T07:39:59;96523.97;;;9.73;100.00
21633;BME280;48765;51.568;8.840;2022-09-27T07:42:26;96529.94;;;9.80;100.00
21633;BME280;48765;51.568;8.840;2022-09-27T07:44:53;96525.81;;;9.96;100.00
21633;BME280;48765;51.568;8.840;2022-09-27T07:47:20;96532.94;;;9.69;100.00
21633;BME280;48765;51.568;8.840;2022-09-27T07:49:48;96536.16;;;9.79;100.00
21633;BME280;48765;51.568;8.840;2022-09-27T07:52:15;96541.28;;;9.57;100.00
21633;BME280;48765;51.568;8.840;2022-09-27T07:54:45;96540.66;;;9.76;100.00
21633;BME280;48765;51.568;8.840;2022-09-27T07:57:12;96539.59;;;9.81;100.00
21633;BME280;48765;51.568;8.840;2022-09-27T07:59:39;96536.06;;;9.81;100.00
21633;BME280;48765;51.568;8.840;2022-09-27T08:02:07;96547.31;;;9.87;100.00
21633;BME280;48765;51.568;8.840;2022-09-27T08:04:36;96536.41;;;9.96;100.00
21633;BME280;48765;51.568;8.840;2022-09-27T08:07:03;96538.19;;;9.96;100.00
21633;BME280;48765;51.568;8.840;2022-09-27T08:09:30;96539.97;;;9.95;100.00
21633;BME280;48765;51.568;8.840;2022-09-27T08:11:58;96548.53;;;10.04;100.00
21633;BME280;48765;51.568;8.840;2022-09-27T08:14:25;96540.06;;;9.92;100.00
21633;BME280;48765;51.568;8.840;2022-09-27T08:16:52;96546.50;;;9.85;100.00
21633;BME280;48765;51.568;8.840;2022-09-27T08:19:19;96560.25;;;9.70;100.00
21633;BME280;48765;51.568;8.840;2022-09-27T08:21:47;96564.50;;;10.01;100.00
21633;BME280;48765;51.568;8.840;2022-09-27T08:24:14;96563.00;;;9.93;100.00
21633;BME280;48765;51.568;8.840;2022-09-27T08:26:41;96567.97;;;10.03;100.00
21633;BME280;48765;51.568;8.840;2022-09-27T08:29:09;96578.75;;;9.96;100.00
21633;BME280;48765;51.568;8.840;2022-09-27T08:31:37;96582.72;;;9.83;100.00
21633;BME280;48765;51.568;8.840;2022-09-27T08:34:03;96576.63;;;9.81;100.00
21633;BME280;48765;51.568;8.840;2022-09-27T08:36:31;96582.88;;;9.52;100.00
21633;BME280;48765;51.568;8.840;2022-09-27T08:39:00;96580.91;;;9.59;100.00
21633;BME280;48765;51.568;8.840;2022-09-27T08:41:31;96581.13;;;9.79;100.00
21633;BME280;48765;51.568;8.840;2022-09-27T08:44:06;96584.25;;;9.90;100.00
21633;BME280;48765;51.568;8.840;2022-09-27T08:46:37;96594.53;;;9.73;100.00
21633;BME280;48765;51.568;8.840;2022-09-27T08:49:09;96591.19;;;9.94;100.00
21633;BME280;48765;51.568;8.840;2022-09-27T08:51:37;96592.91;;;9.95;100.00
21633;BME280;48765;51.568;8.840;2022-09-27T08:54:06;96585.38;;;10.60;100.00
21633;BME280;48765;51.568;8.840;2022-09-27T08:56:36;96587.72;;;10.44;100.00
21633;BME280;48765;51.568;8.840;2022-09-27T08:59:05;96587.69;;;10.45;100.00
21633;BME280;48765;51.568;8.840;2022-09-27T09:01:37;96587.13;;;10.61;100.00
21633;BME280;48765;51.568;8.840;2022-09-27T09:04:05;96589.63;;;10.40;100.00
21633;BME280;48765;51.568;8.840;2022-09-27T09:06:36;96596.19;;;10.54;100.00
21633;BME280;48765;51.568;8.840;2022-09-27T09:09:08;96599.53;;;10.35;100.00
21633;BME280;48765;51.568;8.840;2022-09-27T09:11:42;96602.97;;;10.11;100.00
21633;BME280;48765;51.568;8.840;2022-09-27T09:14:35;96604.19;;;10.01;100.00
21633;BME280;48765;51.568;8.840;2022-09-27T09:17:06;96619.38;;;10.22;100.00
21633;BME280;48765;51.568;8.840;2022-09-27T09:19:43;96620.19;;;10.49;100.00
21633;BME280;48765;51.568;8.840;2022-09-27T09:22:17;96622.91;;;10.47;100.00
21633;BME280;48765;51.568;8.840;2022-09-27T09:24:53;96631.56;;;10.53;100.00
21633;BME280;48765;51.568;8.840;2022-09-27T09:27:24;96628.34;;;10.44;100.00
21633;BME280;48765;51.568;8.840;2022-09-27T09:30:00;96636.09;;;10.24;100.00
21633;BME280;48765;51.568;8.840;2022-09-27T09:32:33;96630.31;;;10.11;100.00
21633;BME280;48765;51.568;8.840;2022-09-27T09:35:05;96630.28;;;10.13;100.00
21633;BME280;48765;51.568;8.840;2022-09-27T09:37:34;96627.13;;;10.28;100.00
21633;BME280;48765;51.568;8.840;2022-09-27T09:40:03;96632.75;;;10.44;100.00
21633;BME280;48765;51.568;8.840;2022-09-27T09:42:34;96625.31;;;10.54;100.00
21633;BME280;48765;51.568;8.840;2022-09-27T09:45:05;96632.41;;;10.28;100.00
21633;BME280;48765;51.568;8.840;2022-09-27T09:47:37;96626.69;;;10.14;100.00
21633;BME280;48765;51.568;8.840;2022-09-27T09:50:13;96628.28;;;10.46;100.00
21633;BME280;48765;51.568;8.840;2022-09-27T09:52:43;96624.22;;;10.61;100.00
21633;BME280;48765;51.568;8.840;2022-09-27T09:55:17;96621.34;;;10.42;100.00
21633;BME280;48765;51.568;8.840;2022-09-27T09:57:48;96625.78;;;10.15;100.00
21633;BME280;48765;51.568;8.840;2022-09-27T10:00:18;96615.44;;;10.34;100.00
21633;BME280;48765;51.568;8.840;2022-09-27T10:02:47;96618.91;;;10.61;100.00
21633;BME280;48765;51.568;8.840;2022-09-27T10:05:17;96617.16;;;10.85;100.00
21633;BME280;48765;51.568;8.840;2022-09-27T10:07:44;96618.03;;;10.60;100.00
21633;BME280;48765;51.568;8.840;2022-09-27T10:10:12;96613.19;;;10.73;100.00
21633;BME280;48765;51.568;8.840;2022-09-27T10:12:39;96609.03;;;10.89;100.00
21633;BME280;48765;51.568;8.840;2022-09-27T10:15:11;96603.81;;;10.86;100.00
21633;BME280;48765;51.568;8.840;2022-09-27T10:17:40;96603.63;;;10.67;100.00
21633;BME280;48765;51.568;8.840;2022-09-27T10:20:14;96605.38;;;10.43;100.00
21633;BME280;48765;51.568;8.840;2022-09-27T10:22:44;96599.09;;;10.71;100.00
21633;BME280;48765;51.568;8.840;2022-09-27T10:25:13;96597.94;;;10.55;100.00
21633;BME280;48765;51.568;8.840;2022-09-27T10:27:42;96606.25;;;10.69;100.00
21633;BME280;48765;51.568;8.840;2022-09-27T10:30:20;96613.19;;;10.73;100.00
21633;BME280;48765;51.568;8.840;2022-09-27T10:32:47;96626.16;;;10.31;100.00
21633;BME280;48765;51.568;8.840;2022-09-27T10:38:22;96608.63;;;10.52;100.00
21633;BME280;48765;51.568;8.840;2022-09-27T10:40:50;96611.28;;;10.52;100.00
21633;BME280;48765;51.568;8.840;2022-09-27T10:43:24;96614.38;;;10.64;100.00
21633;BME280;48765;51.568;8.840;2022-09-27T10:45:58;96607.34;;;10.63;100.00
21633;BME280;48765;51.568;8.840;2022-09-27T10:48:25;96613.22;;;10.95;100.00
21633;BME280;48765;51.568;8.840;2022-09-27T10:50:56;96614.09;;;10.95;100.00
21633;BME280;48765;51.568;8.840;2022-09-27T10:53:27;96618.84;;;10.87;100.00
21633;BME280;48765;51.568;8.840;2022-09-27T10:55:55;96618.25;;;10.79;100.00
21633;BME280;48765;51.568;8.840;2022-09-27T10:58:24;96615.50;;;11.06;100.00
21633;BME280;48765;51.568;8.840;2022-09-27T11:00:55;96615.50;;;11.06;100.00
21633;BME280;48765;51.568;8.840;2022-09-27T11:03:23;96626.53;;;11.17;100.00
21633;BME280;48765;51.568;8.840;2022-09-27T11:05:53;96619.59;;;11.36;100.00
21633;BME280;48765;51.568;8.840;2022-09-27T11:08:21;96614.31;;;10.89;100.00
21633;BME280;48765;51.568;8.840;2022-09-27T11:11:03;96616.22;;;10.86;100.00
21633;BME280;48765;51.568;8.840;2022-09-27T11:13:31;96625.97;;;11.09;100.00
21633;BME280;48765;51.568;8.840;2022-09-27T11:16:10;96626.78;;;11.11;100.00
21633;BME280;48765;51.568;8.840;2022-09-27T11:18:46;96621.13;;;10.96;100.00
21633;BME280;48765;51.568;8.840;2022-09-27T11:21:18;96627.59;;;11.13;100.00
21633;BME280;48765;51.568;8.840;2022-09-27T11:23:58;96622.72;;;11.00;100.00
21633;BME280;48765;51.568;8.840;2022-09-27T11:26:35;96624.16;;;11.09;100.00
21633;BME280;48765;51.568;8.840;2022-09-27T11:29:10;96625.63;;;11.18;100.00
21633;BME280;48765;51.568;8.840;2022-09-27T11:31:42;96626.31;;;10.99;100.00
21633;BME280;48765;51.568;8.840;2022-09-27T11:34:17;96620.66;;;11.09;100.00
21633;BME280;48765;51.568;8.840;2022-09-27T11:36:55;96623.53;;;10.79;100.00
21633;BME280;48765;51.568;8.840;2022-09-27T11:39:27;96626.53;;;10.93;100.00
21633;BME280;48765;51.568;8.840;2022-09-27T11:42:04;96625.16;;;11.07;100.00
21633;BME280;48765;51.568;8.840;2022-09-27T11:44:46;96617.66;;;10.94;100.00
21633;BME280;48765;51.568;8.840;2022-09-27T11:47:16;96624.13;;;11.11;100.00
21633;BME280;48765;51.568;8.840;2022-09-27T11:49:59;96620.06;;;11.00;100.00
21633;BME280;48765;51.568;8.840;2022-09-27T11:52:37;96622.22;;;10.91;100.00
21633;BME280;48765;51.568;8.840;2022-09-27T11:57:54;96629.88;;;10.75;100.00
21633;BME280;48765;51.568;8.840;2022-09-27T12:00:27;96619.88;;;10.83;100.00
21633;BME280;48765;51.568;8.840;2022-09-27T12:03:13;96626.66;;;10.90;100.00
21633;BME280;48765;51.568;8.840;2022-09-27T12:05:46;96620.69;;;10.60;100.00
21633;BME280;48765;51.568;8.840;2022-09-27T12:08:25;96622.63;;;11.04;100.00
21633;BME280;48765;51.568;8.840;2022-09-27T12:10:57;96633.47;;;10.97;100.00
21633;BME280;48765;51.568;8.840;2022-09-27T12:13:30;96626.38;;;10.98;100.00
21633;BME280;48765;51.568;8.840;2022-09-27T12:15:58;96634.00;;;11.29;100.00
21633;BME280;48765;51.568;8.840;2022-09-27T12:18:28;96618.69;;;11.14;100.00
21633;BME280;48765;51.568;8.840;2022-09-27T12:20:58;96622.91;;;11.19;100.00
21633;BME280;48765;51.568;8.840;2022-09-27T12:23:28;96629.53;;;11.08;100.00
21633;BME280;48765;51.568;8.840;2022-09-27T12:26:02;96623.41;;;11.29;100.00
21633;BME280;48765;51.568;8.840;2022-09-27T12:28:33;96622.53;;;11.29;100.00
21633;BME280;48765;51.568;8.840;2022-09-27T12:31:04;96622.16;;;11.61;100.00
21633;BME280;48765;51.568;8.840;2022-09-27T12:33:34;96613.84;;;11.48;100.00
21633;BME280;48765;51.568;8.840;2022-09-27T12:36:04;96611.66;;;11.36;100.00
21633;BME280;48765;51.568;8.840;2022-09-27T12:38:36;96617.38;;;11.47;100.00
21633;BME280;48765;51.568;8.840;2022-09-27T12:41:05;96621.69;;;11.28;100.00
21633;BME280;48765;51.568;8.840;2022-09-27T12:43:35;96612.94;;;11.26;100.00
21633;BME280;48765;51.568;8.840;2022-09-27T12:46:04;96614.66;;;11.04;100.00
21633;BME280;48765;51.568;8.840;2022-09-27T12:48:34;96616.97;;;11.13;100.00
21633;BME280;48765;51.568;8.840;2022-09-27T12:51:06;96619.03;;;11.05;100.00
21633;BME280;48765;51.568;8.840;2022-09-27T12:53:37;96616.56;;;11.00;100.00
21633;BME280;48765;51.568;8.840;2022-09-27T12:59:02;96626.66;;;10.90;100.00
21633;BME280;48765;51.568;8.840;2022-09-27T13:01:44;96624.88;;;11.14;100.00
21633;BME280;48765;51.568;8.840;2022-09-27T13:07:05;96631.16;;;11.12;100.00
21633;BME280;48765;51.568;8.840;2022-09-27T13:09:43;96615.13;;;11.15;100.00
21633;BME280;48765;51.568;8.840;2022-09-27T13:12:13;96618.66;;;11.15;100.00
21633;BME280;48765;51.568;8.840;2022-09-27T13:14:47;96618.34;;;10.99;100.00
21633;BME280;48765;51.568;8.840;2022-09-27T13:17:32;96618.84;;;11.11;100.00
21633;BME280;48765;51.568;8.840;2022-09-27T13:22:43;96622.03;;;11.19;100.00
21633;BME280;48765;51.568;8.840;2022-09-27T13:27:55;96618.88;;;11.09;100.00